createdAt,value
2022-12-20T00:00:59.551Z,96.13
2022-12-20T00:05:01.270Z,96.44
2022-12-20T00:09:05.756Z,96.26
2022-12-20T00:13:07.533Z,95.66
2022-12-20T00:17:08.892Z,95.72
2022-12-20T00:21:12.606Z,95.92
2022-12-20T00:25:14.154Z,96.21
2022-12-20T00:29:15.537Z,95.87
2022-12-20T00:33:16.867Z,95.79
2022-12-20T00:37:18.305Z,95.55
2022-12-20T00:41:25.907Z,95.02
2022-12-20T00:45:27.296Z,94.62
2022-12-20T00:49:28.698Z,94.98
2022-12-20T00:53:31.162Z,94.97
2022-12-20T00:57:32.537Z,94.49
2022-12-20T01:01:36.760Z,94.30
2022-12-20T01:05:39.474Z,94.11
2022-12-20T01:09:41.115Z,94.37
2022-12-20T01:13:45.262Z,94.52
2022-12-20T01:17:47.248Z,94.52
2022-12-20T01:21:48.635Z,94.05
2022-12-20T01:25:51.641Z,93.91
2022-12-20T01:29:53.040Z,93.26
2022-12-20T01:33:54.714Z,94.43
2022-12-20T01:37:56.081Z,93.98
2022-12-20T01:41:57.627Z,94.78
2022-12-20T01:45:59.041Z,94.03
2022-12-20T01:50:04.920Z,94.21
2022-12-20T01:54:11.951Z,94.86
2022-12-20T01:58:16.394Z,94.75
2022-12-20T02:02:18.180Z,95.07
2022-12-20T02:06:23.335Z,94.55
2022-12-20T02:10:36.722Z,94.59
2022-12-20T02:15:15.685Z,94.17
2022-12-20T02:19:48.062Z,94.64
2022-12-20T02:24:20.265Z,94.14
2022-12-20T02:28:44.823Z,94.58
2022-12-20T02:33:00.722Z,94.15
2022-12-20T02:37:02.277Z,94.15
2022-12-20T02:41:13.856Z,93.82
2022-12-20T02:45:15.843Z,93.58
2022-12-20T02:49:22.204Z,93.59
2022-12-20T02:53:23.682Z,93.60
2022-12-20T02:57:33.755Z,94.11
2022-12-20T03:01:39.363Z,94.31
2022-12-20T03:05:46.789Z,93.61
2022-12-20T03:09:48.287Z,93.99
2022-12-20T03:13:50.197Z,94.47
2022-12-20T03:17:51.892Z,95.30
2022-12-20T03:21:53.595Z,94.95
2022-12-20T03:25:55.433Z,95.24
2022-12-20T03:29:56.816Z,94.98
2022-12-20T03:33:58.295Z,95.48
2022-12-20T03:37:59.777Z,95.60
2022-12-20T03:42:01.383Z,95.95
2022-12-20T03:46:02.809Z,95.81
2022-12-20T03:50:05.806Z,95.37
2022-12-20T03:54:07.489Z,95.34
2022-12-20T03:58:09.453Z,94.64
2022-12-20T04:02:11.038Z,95.52
2022-12-20T04:06:12.493Z,94.74
2022-12-20T04:10:14.132Z,94.77
2022-12-20T04:14:15.734Z,94.81
2022-12-20T04:18:17.408Z,94.03
2022-12-20T04:22:19.022Z,94.59
2022-12-20T04:26:21.064Z,95.11
2022-12-20T04:30:22.752Z,95.45
2022-12-20T04:34:24.200Z,95.86
2022-12-20T04:38:25.703Z,96.81
2022-12-20T04:42:27.300Z,97.26
2022-12-20T04:46:28.708Z,98.24
2022-12-20T04:50:30.092Z,99.08
2022-12-20T04:54:31.502Z,98.95
2022-12-20T04:58:34.673Z,100.00
2022-12-20T05:02:36.108Z,99.44
2022-12-20T05:06:37.606Z,100.00
2022-12-20T05:10:39.007Z,100.00
2022-12-20T05:14:40.507Z,100.00
2022-12-20T05:18:48.515Z,100.00
2022-12-20T05:23:09.545Z,99.22
2022-12-20T05:27:10.870Z,99.49
2022-12-20T05:31:12.790Z,99.54
2022-12-20T05:35:14.797Z,100.00
2022-12-20T05:39:16.542Z,100.00
2022-12-20T05:43:19.422Z,100.00
2022-12-20T05:47:20.983Z,100.00
2022-12-20T05:51:22.513Z,100.00
2022-12-20T05:55:24.204Z,100.00
2022-12-20T05:59:27.310Z,100.00
2022-12-20T06:03:28.899Z,100.00
2022-12-20T06:07:31.917Z,100.00
2022-12-20T06:11:33.787Z,100.00
2022-12-20T06:15:35.273Z,100.00
2022-12-20T06:19:36.643Z,100.00
2022-12-20T06:23:38.126Z,100.00
2022-12-20T06:27:39.745Z,100.00
2022-12-20T06:31:41.197Z,100.00
2022-12-20T06:35:43.020Z,100.00
2022-12-20T06:39:44.531Z,100.00
2022-12-20T06:43:46.008Z,100.00
2022-12-20T06:47:47.528Z,100.00
2022-12-20T06:51:49.332Z,100.00
2022-12-20T06:55:51.180Z,100.00
2022-12-20T06:59:53.023Z,100.00
2022-12-20T07:03:54.566Z,100.00
2022-12-20T07:07:56.038Z,100.00
2022-12-20T07:11:57.524Z,100.00
2022-12-20T07:16:00.174Z,100.00
2022-12-20T07:20:01.454Z,100.00
2022-12-20T07:24:02.924Z,100.00
2022-12-20T07:28:04.427Z,100.00
2022-12-20T07:32:06.503Z,100.00
2022-12-20T07:36:11.213Z,100.00
2022-12-20T07:40:13.205Z,100.00
2022-12-20T07:44:14.683Z,100.00
2022-12-20T07:48:19.693Z,100.00
2022-12-20T07:52:27.830Z,100.00
2022-12-20T07:56:36.051Z,100.00
2022-12-20T08:00:42.361Z,100.00
2022-12-20T08:04:44.085Z,100.00
2022-12-20T08:08:52.562Z,100.00
2022-12-20T08:12:55.248Z,100.00
2022-12-20T08:16:56.602Z,100.00
2022-12-20T08:20:57.989Z,100.00
2022-12-20T08:24:59.325Z,100.00
2022-12-20T08:29:00.705Z,100.00
2022-12-20T08:33:02.142Z,100.00
2022-12-20T08:37:09.051Z,100.00
2022-12-20T08:41:15.659Z,100.00
2022-12-20T08:45:19.371Z,100.00
2022-12-20T08:49:20.921Z,100.00
2022-12-20T08:53:22.333Z,100.00
2022-12-20T08:57:23.697Z,100.00
2022-12-20T09:01:26.883Z,100.00
2022-12-20T09:05:28.399Z,100.00
2022-12-20T09:09:29.980Z,100.00
2022-12-20T09:13:31.368Z,100.00
2022-12-20T09:17:32.739Z,100.00
2022-12-20T09:21:34.712Z,100.00
2022-12-20T09:25:37.444Z,100.00
2022-12-20T09:29:38.779Z,100.00
2022-12-20T09:33:40.869Z,99.57
2022-12-20T09:37:42.300Z,99.16
2022-12-20T09:41:44.724Z,98.31
2022-12-20T09:45:48.444Z,97.28
2022-12-20T09:49:55.293Z,95.58
2022-12-20T09:54:15.979Z,94.67
2022-12-20T09:58:35.686Z,94.29
2022-12-20T10:07:03.279Z,92.50
2022-12-20T10:11:23.324Z,91.82
2022-12-20T10:15:38.243Z,91.41
2022-12-20T10:20:08.450Z,90.13
2022-12-20T10:24:25.018Z,89.70
2022-12-20T10:28:35.756Z,88.77
2022-12-20T10:32:37.142Z,88.05
2022-12-20T10:36:38.515Z,87.62
2022-12-20T10:45:25.462Z,87.44
2022-12-20T10:49:34.057Z,86.28
2022-12-20T10:53:37.094Z,84.91
2022-12-20T10:57:42.535Z,85.58
2022-12-20T11:01:47.110Z,85.89
2022-12-20T11:05:57.852Z,86.09
2022-12-20T11:10:02.602Z,86.55
2022-12-20T11:14:16.009Z,86.08
2022-12-20T11:18:48.011Z,85.00
2022-12-20T11:23:12.427Z,84.74
2022-12-20T11:27:40.330Z,83.59
2022-12-20T11:31:54.520Z,84.57
2022-12-20T11:36:04.410Z,83.57
2022-12-20T11:40:17.103Z,82.80
2022-12-20T11:44:27.862Z,82.45
2022-12-20T11:48:43.557Z,82.07
2022-12-20T11:52:51.859Z,80.29
2022-12-20T12:02:22.417Z,77.37
2022-12-20T12:06:32.776Z,76.80
2022-12-20T12:10:40.214Z,75.61
2022-12-20T12:15:05.227Z,75.11
2022-12-20T12:19:12.473Z,75.19
2022-12-20T12:23:23.359Z,75.01
2022-12-20T12:27:28.891Z,75.27
2022-12-20T12:31:56.324Z,75.62
2022-12-20T12:36:18.345Z,75.62
2022-12-20T12:40:53.243Z,75.42
2022-12-20T12:44:59.741Z,74.66
2022-12-20T12:49:06.587Z,74.15
2022-12-20T12:53:15.892Z,75.28
2022-12-20T12:57:19.066Z,74.44
2022-12-20T13:01:54.971Z,73.94
2022-12-20T13:05:56.410Z,73.94
2022-12-20T13:09:58.999Z,73.98
2022-12-20T13:14:22.340Z,73.59
2022-12-20T13:18:25.013Z,73.71
2022-12-20T13:22:26.961Z,73.44
2022-12-20T13:26:49.881Z,74.33
2022-12-20T13:30:54.009Z,74.66
2022-12-20T13:34:57.281Z,73.74
2022-12-20T13:39:01.669Z,74.06
2022-12-20T13:43:13.666Z,74.48
2022-12-20T13:47:32.296Z,73.26
2022-12-20T13:51:34.139Z,73.40
2022-12-20T13:55:38.430Z,73.89
2022-12-20T13:59:39.924Z,73.27
2022-12-20T14:03:45.507Z,73.54
2022-12-20T14:07:51.623Z,73.86
2022-12-20T14:11:52.949Z,73.96
2022-12-20T14:15:54.856Z,73.87
2022-12-20T14:20:05.614Z,74.62
2022-12-20T14:24:16.995Z,73.93
2022-12-20T14:28:29.797Z,74.38
2022-12-20T14:32:31.869Z,74.54
2022-12-20T14:36:34.396Z,74.72
2022-12-20T14:40:40.815Z,74.57
2022-12-20T14:44:42.144Z,74.79
2022-12-20T14:48:43.763Z,74.44
2022-12-20T14:52:45.666Z,74.27
2022-12-20T14:56:50.689Z,73.98
2022-12-20T15:01:01.378Z,74.09
2022-12-20T15:05:38.601Z,74.45
2022-12-20T15:09:39.952Z,74.30
2022-12-20T15:13:47.287Z,75.14
2022-12-20T15:17:48.580Z,74.48
2022-12-20T15:21:50.380Z,75.19
2022-12-20T15:25:51.741Z,74.61
2022-12-20T15:29:53.076Z,75.20
2022-12-20T15:33:57.308Z,74.80
2022-12-20T15:37:58.808Z,75.21
2022-12-20T15:42:02.656Z,75.55
2022-12-20T15:46:04.683Z,76.37
2022-12-20T15:50:06.923Z,78.27
2022-12-20T15:54:27.213Z,79.56
2022-12-20T15:58:28.707Z,80.76
2022-12-20T16:02:33.126Z,81.93
2022-12-20T16:06:34.742Z,84.24
2022-12-20T16:15:16.327Z,84.49
2022-12-20T16:20:32.589Z,83.55
2022-12-20T16:33:27.967Z,82.46
2022-12-20T16:37:38.955Z,82.56
2022-12-20T16:46:06.377Z,83.02
2022-12-20T16:50:14.372Z,83.51
2022-12-20T16:59:25.819Z,83.89
2022-12-20T17:04:02.770Z,84.57
2022-12-20T17:17:33.116Z,84.93
2022-12-20T17:25:56.669Z,83.43
2022-12-20T17:29:58.598Z,83.27
2022-12-20T17:34:08.122Z,83.08
2022-12-20T17:38:23.640Z,82.95
2022-12-20T17:47:01.838Z,83.15
2022-12-20T17:51:33.128Z,84.20
2022-12-20T17:56:09.352Z,84.71
2022-12-20T18:00:38.169Z,86.36
2022-12-20T18:04:40.970Z,87.84
2022-12-20T18:08:42.825Z,88.81
2022-12-20T18:12:44.224Z,90.02
2022-12-20T18:16:48.272Z,90.99
2022-12-20T18:20:50.799Z,92.33
2022-12-20T18:24:52.892Z,93.31
2022-12-20T18:29:01.265Z,94.39
2022-12-20T18:33:02.583Z,95.17
2022-12-20T18:37:05.882Z,96.05
2022-12-20T18:41:12.732Z,97.04
2022-12-20T18:45:14.273Z,97.86
2022-12-20T18:49:15.685Z,98.23
2022-12-20T18:53:17.059Z,98.80
2022-12-20T18:57:18.399Z,99.66
2022-12-20T19:01:25.396Z,100.00
2022-12-20T19:05:28.734Z,100.00
2022-12-20T19:09:30.088Z,100.00
2022-12-20T19:13:31.418Z,100.00
2022-12-20T19:17:33.296Z,100.00
2022-12-20T19:21:36.354Z,100.00
2022-12-20T19:25:38.257Z,100.00
2022-12-20T19:29:39.621Z,100.00
2022-12-20T19:33:43.449Z,100.00
2022-12-20T19:37:44.753Z,100.00
2022-12-20T19:42:06.830Z,100.00
2022-12-20T19:46:09.798Z,100.00
2022-12-20T19:50:11.679Z,100.00
2022-12-20T19:54:13.018Z,100.00
2022-12-20T19:58:14.369Z,100.00
2022-12-20T20:02:16.176Z,100.00
2022-12-20T20:06:18.559Z,100.00
2022-12-20T20:10:20.008Z,100.00
2022-12-20T20:14:21.802Z,100.00
2022-12-20T20:18:24.196Z,100.00
2022-12-20T20:22:26.707Z,100.00
2022-12-20T20:26:29.396Z,100.00
2022-12-20T20:30:30.739Z,100.00
2022-12-20T20:34:32.042Z,100.00
2022-12-20T20:38:34.833Z,100.00
2022-12-20T20:42:36.128Z,100.00
2022-12-20T20:46:37.992Z,100.00
2022-12-20T20:50:40.243Z,100.00
2022-12-20T20:54:41.780Z,100.00
2022-12-20T20:58:45.045Z,100.00
2022-12-20T21:02:46.897Z,100.00
2022-12-20T21:06:48.448Z,100.00
2022-12-20T21:10:50.268Z,100.00
2022-12-20T21:15:21.114Z,100.00
2022-12-20T21:19:13.482Z,100.00
2022-12-20T21:23:14.857Z,100.00
2022-12-20T21:27:16.447Z,100.00
2022-12-20T21:31:19.231Z,100.00
2022-12-20T21:35:21.200Z,100.00
2022-12-20T21:39:22.581Z,100.00
2022-12-20T21:43:23.918Z,100.00
2022-12-20T21:47:25.319Z,100.00
2022-12-20T21:51:28.203Z,100.00
2022-12-20T21:55:29.517Z,100.00
2022-12-20T21:59:31.051Z,100.00
2022-12-20T22:03:32.426Z,100.00
2022-12-20T22:07:33.928Z,100.00
2022-12-20T22:11:36.012Z,100.00
2022-12-20T22:15:38.844Z,100.00
2022-12-20T22:19:40.455Z,100.00
2022-12-20T22:23:42.491Z,100.00
2022-12-20T22:27:44.057Z,100.00
2022-12-20T22:31:45.811Z,100.00
2022-12-20T22:35:47.203Z,100.00
2022-12-20T22:39:49.147Z,100.00
2022-12-20T22:43:50.689Z,100.00
2022-12-20T22:47:52.209Z,100.00
2022-12-20T22:52:06.360Z,100.00
2022-12-20T22:56:09.240Z,100.00
2022-12-20T23:00:13.054Z,100.00
2022-12-20T23:04:15.182Z,100.00
2022-12-20T23:08:16.883Z,100.00
2022-12-20T23:12:37.300Z,100.00
2022-12-20T23:16:38.728Z,100.00
2022-12-20T23:20:58.829Z,100.00
2022-12-20T23:25:00.719Z,100.00
2022-12-20T23:29:04.050Z,100.00
2022-12-20T23:33:05.350Z,100.00
2022-12-20T23:37:06.770Z,100.00
2022-12-20T23:41:09.908Z,100.00
2022-12-20T23:45:11.739Z,100.00
2022-12-20T23:49:13.066Z,100.00
2022-12-20T23:53:14.745Z,100.00
2022-12-20T23:57:16.387Z,100.00
